Time;durP1;ratioP1;P1;durP2;ratioP2;P2;SDS_P1;SDS_P2;PMS_P1;PMS_P2;Temp;Humidity;BMP_temperature;BMP_pressure;BME280_temperature;BME280_humidity;BME280_pressure;Samples;Min_cycle;Max_cycle;Signal;HPM_P1;HPM_P2
2022/03/09 00:00:31;;;;;;;16.05;7.15;;;4.80;97.70;;;;;;5053800;28;20119;-62
2022/03/09 00:02:56;;;;;;;20.83;8.88;;;4.90;97.70;;;;;;5048396;28;20033;-62
2022/03/09 00:05:22;;;;;;;16.65;7.20;;;4.80;97.80;;;;;;5050751;28;20036;-63
2022/03/09 00:07:48;;;;;;;19.63;8.05;;;4.80;97.90;;;;;;5044191;28;20049;-63
2022/03/09 00:10:13;;;;;;;20.58;8.73;;;4.80;98.30;;;;;;5032687;28;20035;-63
2022/03/09 00:12:39;;;;;;;18.33;8.07;;;4.80;98.70;;;;;;5035750;28;20040;-63
2022/03/09 00:15:05;;;;;;;20.05;8.68;;;4.80;98.50;;;;;;5033908;28;20029;-63
2022/03/09 00:17:31;;;;;;;16.33;7.68;;;4.80;98.60;;;;;;5034602;28;20036;-63
2022/03/09 00:19:56;;;;;;;19.80;7.88;;;4.80;98.50;;;;;;5019253;28;20453;-63
2022/03/09 00:22:22;;;;;;;17.52;7.22;;;4.80;98.40;;;;;;5034374;28;20030;-63
2022/03/09 00:24:47;;;;;;;20.50;6.97;;;4.70;98.30;;;;;;5028521;28;20049;-63
2022/03/09 00:27:13;;;;;;;18.58;7.25;;;4.70;98.30;;;;;;5045722;28;20367;-63
2022/03/09 00:29:38;;;;;;;16.13;7.13;;;4.70;98.40;;;;;;5043265;28;20064;-63
2022/03/09 00:32:06;;;;;;;18.98;7.88;;;4.70;98.20;;;;;;5048855;28;20060;-63
2022/03/09 00:34:32;;;;;;;20.13;8.05;;;4.70;98.30;;;;;;5038979;28;20030;-63
2022/03/09 00:36:57;;;;;;;17.73;8.38;;;4.70;98.40;;;;;;5041619;28;20104;-64
2022/03/09 00:39:23;;;;;;;19.10;7.85;;;4.70;98.40;;;;;;5047213;28;20421;-65
2022/03/09 00:41:49;;;;;;;19.58;8.00;;;4.60;98.30;;;;;;5040191;28;20033;-64
2022/03/09 00:44:15;;;;;;;17.63;7.95;;;4.60;98.40;;;;;;5049733;28;20076;-63
2022/03/09 00:46:41;;;;;;;18.52;7.90;;;4.60;98.50;;;;;;5032172;28;20041;-62
2022/03/09 00:49:06;;;;;;;20.38;8.02;;;4.60;98.50;;;;;;5034033;28;20449;-62
2022/03/09 00:51:32;;;;;;;18.10;7.85;;;4.60;98.60;;;;;;5047215;28;20473;-62
2022/03/09 00:53:58;;;;;;;20.52;8.60;;;4.60;98.70;;;;;;5033570;28;20034;-62
2022/03/09 00:56:23;;;;;;;18.95;7.93;;;4.50;98.70;;;;;;5018506;28;20029;-63
2022/03/09 00:58:49;;;;;;;20.65;8.60;;;4.50;98.70;;;;;;5035142;28;20037;-63
2022/03/09 01:01:14;;;;;;;19.38;7.82;;;4.50;98.70;;;;;;5035285;28;20040;-65
2022/03/09 01:03:41;;;;;;;18.08;7.90;;;4.50;98.80;;;;;;5033761;28;20405;-67
2022/03/09 01:06:07;;;;;;;20.33;8.00;;;4.50;98.80;;;;;;5033274;28;20124;-64
2022/03/09 01:08:32;;;;;;;19.75;8.50;;;4.50;98.80;;;;;;5034898;28;20117;-65
2022/03/09 01:10:58;;;;;;;20.23;8.15;;;4.50;98.90;;;;;;5034347;28;20032;-65
2022/03/09 01:13:24;;;;;;;22.70;8.57;;;4.50;98.90;;;;;;5034635;28;20065;-66
2022/03/09 01:15:50;;;;;;;17.23;8.02;;;4.40;98.90;;;;;;5034056;28;20112;-64
2022/03/09 01:18:16;;;;;;;19.25;8.20;;;4.40;99.10;;;;;;5034236;28;20049;-65
2022/03/09 01:20:42;;;;;;;18.98;8.82;;;4.40;99.30;;;;;;5034076;28;20457;-65
2022/03/09 01:23:08;;;;;;;18.05;7.75;;;4.40;99.30;;;;;;5032576;28;20037;-66
2022/03/09 01:25:34;;;;;;;18.80;8.50;;;4.40;99.30;;;;;;5030703;28;20054;-67
2022/03/09 01:27:59;;;;;;;21.50;8.85;;;4.40;99.50;;;;;;5033234;28;20026;-67
2022/03/09 01:30:25;;;;;;;19.52;8.63;;;4.30;99.50;;;;;;5034035;28;20394;-65
2022/03/09 01:32:51;;;;;;;21.40;8.95;;;4.30;99.60;;;;;;5032122;28;20030;-64
2022/03/09 01:35:17;;;;;;;21.77;8.55;;;4.30;99.60;;;;;;5032873;28;20500;-65
2022/03/09 01:37:42;;;;;;;17.98;8.38;;;4.30;99.70;;;;;;5034147;28;20026;-63
2022/03/09 01:40:08;;;;;;;19.02;8.48;;;4.20;99.80;;;;;;5034362;28;20042;-63
2022/03/09 01:42:34;;;;;;;16.90;7.55;;;4.20;99.90;;;;;;5033956;28;20048;-64
2022/03/09 01:45:05;;;;;;;20.42;8.77;;;4.20;99.90;;;;;;5034070;28;20091;-63
2022/03/09 01:47:31;;;;;;;17.37;7.53;;;4.20;99.90;;;;;;5033753;28;20101;-63
2022/03/09 01:49:57;;;;;;;20.27;7.95;;;4.10;99.90;;;;;;5034429;28;20454;-63
2022/03/09 01:52:23;;;;;;;18.08;7.72;;;4.10;99.90;;;;;;5034166;28;20033;-66
2022/03/09 01:54:52;;;;;;;20.15;8.20;;;4.10;99.90;;;;;;5028177;28;20033;-64
2022/03/09 01:57:18;;;;;;;20.88;7.93;;;4.10;99.90;;;;;;5025971;28;20613;-62
2022/03/09 01:59:43;;;;;;;20.75;8.55;;;4.10;99.90;;;;;;5032628;28;20033;-65
2022/03/09 02:02:10;;;;;;;17.50;7.68;;;4.10;99.90;;;;;;5014599;28;20450;-63
2022/03/09 02:04:36;;;;;;;20.52;8.07;;;4.10;99.90;;;;;;5019088;28;20057;-65
2022/03/09 02:07:02;;;;;;;18.88;7.72;;;4.00;99.90;;;;;;5033007;28;20465;-65
2022/03/09 02:09:43;;;;;;;17.63;8.00;;;4.00;99.90;;;;;;5033602;28;20041;-66
2022/03/09 02:12:17;;;;;;;17.13;7.60;;;4.00;99.90;;;;;;5032380;28;20405;-64
2022/03/09 02:14:45;;;;;;;20.35;7.72;;;4.00;99.90;;;;;;5024721;28;20037;-66
2022/03/09 02:17:17;;;;;;;18.05;7.82;;;4.00;99.90;;;;;;5028679;28;20064;-63
2022/03/09 02:19:49;;;;;;;21.67;8.50;;;4.00;99.90;;;;;;5034595;28;20064;-62
2022/03/09 02:22:21;;;;;;;19.02;8.00;;;4.00;99.90;;;;;;5045458;28;20021;-63
2022/03/09 02:24:48;;;;;;;17.70;8.27;;;4.00;99.90;;;;;;5053427;28;20041;-62
2022/03/09 02:27:13;;;;;;;17.88;7.95;;;4.00;99.90;;;;;;5035882;28;20073;-63
2022/03/09 02:29:39;;;;;;;17.92;8.32;;;4.00;99.90;;;;;;5032535;28;20084;-63
2022/03/09 02:32:05;;;;;;;19.17;7.85;;;4.10;99.90;;;;;;5033462;28;20079;-62
2022/03/09 02:34:31;;;;;;;19.80;7.80;;;4.00;99.90;;;;;;5033028;28;20413;-62
2022/03/09 02:36:57;;;;;;;21.00;8.10;;;4.00;99.90;;;;;;5032918;28;20029;-63
2022/03/09 02:39:23;;;;;;;16.45;7.35;;;4.00;99.90;;;;;;5031844;28;20033;-63
2022/03/09 02:41:49;;;;;;;20.77;8.65;;;4.00;99.90;;;;;;5032608;28;20034;-63
2022/03/09 02:44:15;;;;;;;17.83;7.70;;;4.00;99.90;;;;;;5045390;28;20039;-63
2022/03/09 02:46:40;;;;;;;20.65;8.82;;;4.00;99.90;;;;;;5032826;28;20041;-63
2022/03/09 02:49:06;;;;;;;18.88;7.97;;;4.00;99.90;;;;;;5028179;28;20489;-63
2022/03/09 02:51:32;;;;;;;18.75;8.00;;;3.90;99.90;;;;;;5013782;28;20116;-62
2022/03/09 02:53:58;;;;;;;17.85;7.38;;;4.00;99.90;;;;;;5013356;28;20072;-62
2022/03/09 02:56:24;;;;;;;18.98;8.00;;;3.90;99.90;;;;;;5027682;28;20482;-63
2022/03/09 02:58:49;;;;;;;17.45;7.93;;;3.90;99.90;;;;;;5032776;28;20156;-63
2022/03/09 03:01:15;;;;;;;21.42;8.55;;;3.90;99.90;;;;;;5033057;28;20362;-63
2022/03/09 03:03:41;;;;;;;21.42;9.38;;;3.90;99.90;;;;;;5032919;28;20374;-63
2022/03/09 03:06:07;;;;;;;20.52;8.10;;;3.80;99.90;;;;;;5032733;28;20076;-63
2022/03/09 03:08:33;;;;;;;16.80;7.70;;;3.80;99.90;;;;;;5031615;28;20416;-63
2022/03/09 03:11:00;;;;;;;18.30;7.70;;;3.80;99.90;;;;;;5035366;28;20030;-64
2022/03/09 03:13:26;;;;;;;20.75;8.80;;;3.80;99.90;;;;;;5037008;28;20037;-63
2022/03/09 03:15:52;;;;;;;19.13;7.47;;;3.80;99.90;;;;;;5035343;28;20026;-63
2022/03/09 03:18:17;;;;;;;21.17;8.00;;;3.70;99.90;;;;;;5037435;28;20037;-65
2022/03/09 03:20:43;;;;;;;18.20;7.90;;;3.70;99.90;;;;;;5037173;28;20030;-66
2022/03/09 03:23:08;;;;;;;16.38;7.13;;;3.80;99.90;;;;;;5036408;28;20109;-62
2022/03/09 03:25:34;;;;;;;16.23;7.43;;;3.70;99.90;;;;;;5040807;28;20554;-65
2022/03/09 03:27:59;;;;;;;22.90;7.68;;;3.70;99.90;;;;;;5044459;28;20029;-65
2022/03/09 03:30:25;;;;;;;18.02;8.10;;;3.70;99.90;;;;;;5035517;28;20120;-67
2022/03/09 03:32:51;;;;;;;17.42;7.10;;;3.70;99.90;;;;;;5037151;28;20106;-61
2022/03/09 03:35:16;;;;;;;19.92;7.88;;;3.70;99.90;;;;;;5034764;28;20033;-65
2022/03/09 03:37:42;;;;;;;17.38;7.53;;;3.70;99.90;;;;;;5036420;28;20079;-61
2022/03/09 03:40:08;;;;;;;16.73;7.03;;;3.70;99.90;;;;;;5036477;28;20064;-63
2022/03/09 03:42:34;;;;;;;21.85;7.65;;;3.70;99.90;;;;;;5036915;28;20061;-65
2022/03/09 03:44:59;;;;;;;19.88;8.50;;;3.70;99.90;;;;;;5035207;28;20060;-64
2022/03/09 03:47:25;;;;;;;18.33;8.15;;;3.70;99.90;;;;;;5036154;28;20033;-66
2022/03/09 03:49:51;;;;;;;15.93;6.93;;;3.80;99.90;;;;;;5035040;28;20504;-66
2022/03/09 03:52:17;;;;;;;16.95;6.95;;;3.70;99.90;;;;;;5036225;28;20100;-64
2022/03/09 03:54:42;;;;;;;17.23;6.95;;;3.80;99.90;;;;;;5035568;28;20042;-65
2022/03/09 03:57:08;;;;;;;16.25;8.23;;;3.80;99.90;;;;;;5034591;28;20034;-67
2022/03/09 03:59:33;;;;;;;27.33;7.75;;;3.80;99.90;;;;;;5036059;28;20026;-63
2022/03/09 04:01:59;;;;;;;16.00;7.00;;;3.80;99.90;;;;;;5035051;28;20100;-62
2022/03/09 04:04:25;;;;;;;15.98;6.90;;;3.80;99.90;;;;;;5035830;28;20037;-65
2022/03/09 04:06:51;;;;;;;17.02;7.45;;;3.80;99.80;;;;;;5035483;28;20048;-62
2022/03/09 04:09:16;;;;;;;17.20;7.13;;;3.90;99.80;;;;;;5034970;28;20493;-66
2022/03/09 04:11:42;;;;;;;15.07;6.93;;;3.90;99.80;;;;;;5035119;28;20037;-64
2022/03/09 04:14:07;;;;;;;18.38;7.88;;;3.90;99.80;;;;;;5035491;28;20021;-64
2022/03/09 04:16:33;;;;;;;21.00;8.38;;;4.00;99.90;;;;;;5035286;28;20030;-65
2022/03/09 04:18:59;;;;;;;19.20;7.72;;;4.00;99.90;;;;;;5035017;28;20065;-67
2022/03/09 04:21:24;;;;;;;20.80;7.90;;;4.00;99.90;;;;;;5035115;28;20052;-63
2022/03/09 04:23:50;;;;;;;19.85;8.38;;;4.00;99.90;;;;;;5034718;28;20049;-62
2022/03/09 04:26:16;;;;;;;21.73;7.60;;;4.00;99.90;;;;;;5035025;28;20041;-62
2022/03/09 04:28:41;;;;;;;18.23;8.23;;;3.90;99.90;;;;;;5035627;28;20030;-63
2022/03/09 04:31:07;;;;;;;19.88;7.80;;;3.90;99.90;;;;;;5041728;28;20423;-63
2022/03/09 04:33:32;;;;;;;20.42;8.15;;;3.90;99.90;;;;;;5034677;28;20424;-63
2022/03/09 04:35:58;;;;;;;22.77;9.43;;;3.80;99.90;;;;;;5034182;28;20021;-62
2022/03/09 04:38:24;;;;;;;19.50;8.55;;;3.80;99.90;;;;;;5035648;28;20029;-62
2022/03/09 04:40:49;;;;;;;20.98;9.07;;;3.80;99.90;;;;;;5034741;28;20026;-64
2022/03/09 04:43:15;;;;;;;18.13;7.90;;;3.70;99.90;;;;;;5035145;28;20481;-63
2022/03/09 04:45:40;;;;;;;21.23;8.43;;;3.70;99.90;;;;;;5034473;28;20049;-63
2022/03/09 04:48:06;;;;;;;20.67;8.32;;;3.70;99.90;;;;;;5035103;28;20034;-63
2022/03/09 04:50:31;;;;;;;17.38;8.07;;;3.60;99.90;;;;;;5035044;28;20021;-64
2022/03/09 04:52:57;;;;;;;16.80;7.45;;;3.60;99.90;;;;;;5034614;28;20434;-64
2022/03/09 04:55:22;;;;;;;17.70;7.93;;;3.60;99.90;;;;;;5034278;28;20108;-64
2022/03/09 04:57:48;;;;;;;19.45;7.63;;;3.60;99.90;;;;;;5033606;28;20030;-63
2022/03/09 05:00:14;;;;;;;22.10;8.07;;;3.50;99.90;;;;;;5033438;28;20462;-63
2022/03/09 05:02:40;;;;;;;19.10;7.95;;;3.50;99.90;;;;;;5028901;28;20072;-63
2022/03/09 05:05:06;;;;;;;19.98;7.47;;;3.50;99.90;;;;;;5034436;28;20064;-63
2022/03/09 05:07:32;;;;;;;19.48;8.05;;;3.50;99.90;;;;;;5034305;28;20045;-63
2022/03/09 05:09:57;;;;;;;18.15;6.78;;;3.50;99.90;;;;;;5034469;28;20030;-63
2022/03/09 05:12:23;;;;;;;16.80;7.85;;;3.50;99.90;;;;;;5034953;28;20382;-63
2022/03/09 05:14:48;;;;;;;16.67;6.90;;;3.50;99.90;;;;;;5033737;28;20037;-62
2022/03/09 05:17:14;;;;;;;14.80;6.57;;;3.40;99.90;;;;;;5034660;28;20098;-62
2022/03/09 05:19:39;;;;;;;18.27;7.00;;;3.40;99.90;;;;;;5032486;28;20116;-63
2022/03/09 05:22:05;;;;;;;15.98;7.40;;;3.40;99.90;;;;;;5034495;28;20045;-62
2022/03/09 05:24:30;;;;;;;19.67;8.30;;;3.30;99.90;;;;;;5034011;28;20045;-62
2022/03/09 05:26:56;;;;;;;18.75;7.55;;;3.30;99.90;;;;;;5033574;28;20045;-63
2022/03/09 05:29:21;;;;;;;17.15;7.90;;;3.30;99.90;;;;;;5034084;28;20029;-63
2022/03/09 05:31:47;;;;;;;16.83;7.38;;;3.30;99.90;;;;;;5033865;28;20037;-62
2022/03/09 05:34:13;;;;;;;21.52;9.80;;;3.30;99.90;;;;;;5032446;28;20033;-62
2022/03/09 05:36:40;;;;;;;17.88;8.02;;;3.30;99.90;;;;;;5037444;28;20037;-62
2022/03/09 05:39:05;;;;;;;23.17;8.55;;;3.20;99.90;;;;;;5033917;28;20119;-63
2022/03/09 05:41:33;;;;;;;18.92;7.95;;;3.20;99.90;;;;;;5034053;28;20469;-62
2022/03/09 05:43:58;;;;;;;19.63;8.50;;;3.20;99.90;;;;;;5033713;28;20105;-62
2022/03/09 05:46:24;;;;;;;18.02;7.90;;;3.20;99.90;;;;;;5033498;28;20172;-63
2022/03/09 05:48:49;;;;;;;18.80;7.75;;;3.20;99.90;;;;;;5033682;28;20047;-63
2022/03/09 05:51:15;;;;;;;16.25;7.40;;;3.20;99.90;;;;;;5033365;28;20052;-62
2022/03/09 05:53:41;;;;;;;18.83;7.88;;;3.20;99.90;;;;;;5031095;28;20487;-64
2022/03/09 05:56:07;;;;;;;19.75;8.35;;;3.20;99.90;;;;;;5032076;28;20032;-63
2022/03/09 05:58:32;;;;;;;20.75;7.82;;;3.20;99.90;;;;;;5033711;28;20531;-62
2022/03/09 06:00:58;;;;;;;20.35;9.48;;;3.20;99.90;;;;;;5038844;28;20104;-62
2022/03/09 06:03:23;;;;;;;20.15;8.02;;;3.10;99.90;;;;;;5053562;28;20032;-64
2022/03/09 06:05:49;;;;;;;19.92;7.95;;;3.10;99.90;;;;;;5030826;28;20117;-63
2022/03/09 06:08:15;;;;;;;20.17;7.50;;;3.10;99.90;;;;;;5032027;28;20037;-62
2022/03/09 06:10:40;;;;;;;19.92;8.75;;;3.10;99.90;;;;;;5033517;28;20032;-63
2022/03/09 06:13:06;;;;;;;19.60;7.72;;;3.00;99.90;;;;;;5032923;28;20109;-63
2022/03/09 06:15:32;;;;;;;23.13;7.68;;;3.00;99.90;;;;;;5032697;28;20493;-63
2022/03/09 06:17:57;;;;;;;18.38;8.27;;;3.00;99.90;;;;;;5033049;28;20060;-64
2022/03/09 06:20:25;;;;;;;22.17;7.43;;;3.00;99.90;;;;;;5032284;28;20420;-65
2022/03/09 06:22:51;;;;;;;21.27;7.88;;;3.00;99.90;;;;;;5032990;28;20029;-67
2022/03/09 06:25:16;;;;;;;18.23;7.53;;;3.00;99.90;;;;;;5030824;28;20055;-64
2022/03/09 06:27:43;;;;;;;18.08;7.78;;;3.00;99.90;;;;;;5031406;28;20021;-64
2022/03/09 06:30:10;;;;;;;24.15;8.88;;;3.00;99.90;;;;;;5029462;28;20033;-64
2022/03/09 06:32:36;;;;;;;19.90;8.05;;;3.10;99.90;;;;;;5030612;28;20032;-63
2022/03/09 06:35:03;;;;;;;21.25;8.98;;;3.00;99.90;;;;;;5032010;28;20374;-65
2022/03/09 06:37:28;;;;;;;18.75;7.82;;;3.10;99.90;;;;;;5031311;28;20535;-63
2022/03/09 06:39:56;;;;;;;19.60;7.78;;;3.10;99.90;;;;;;5032170;28;20104;-65
2022/03/09 06:42:23;;;;;;;19.48;9.00;;;3.10;99.90;;;;;;5032437;28;20384;-63
2022/03/09 06:44:48;;;;;;;17.90;7.72;;;3.10;99.90;;;;;;5028801;28;20031;-66
2022/03/09 06:47:14;;;;;;;16.38;7.15;;;3.10;99.90;;;;;;5029401;28;20040;-64
2022/03/09 06:49:39;;;;;;;18.33;7.85;;;3.20;99.90;;;;;;5031862;28;20108;-63
2022/03/09 06:52:05;;;;;;;19.75;7.78;;;3.20;99.90;;;;;;5033006;28;20042;-63
2022/03/09 06:54:31;;;;;;;23.92;8.93;;;3.20;99.90;;;;;;5032376;28;20029;-65
2022/03/09 06:56:57;;;;;;;18.80;8.20;;;3.20;99.90;;;;;;5032470;28;20401;-65
2022/03/09 06:59:22;;;;;;;18.88;8.50;;;3.30;99.90;;;;;;5031816;28;20037;-66
2022/03/09 07:01:48;;;;;;;19.17;8.32;;;3.30;99.90;;;;;;5032472;28;20103;-64
2022/03/09 07:04:13;;;;;;;17.95;7.78;;;3.30;99.90;;;;;;5025339;28;20027;-64
2022/03/09 07:06:39;;;;;;;20.67;8.95;;;3.30;99.90;;;;;;5029989;28;20072;-65
2022/03/09 07:09:06;;;;;;;22.13;9.20;;;3.40;99.90;;;;;;5030249;28;20029;-67
2022/03/09 07:11:32;;;;;;;22.73;9.10;;;3.40;99.90;;;;;;5031187;28;20030;-64
2022/03/09 07:13:57;;;;;;;22.88;9.32;;;3.50;99.90;;;;;;5033026;28;20034;-63
2022/03/09 07:16:23;;;;;;;18.42;8.88;;;3.50;99.90;;;;;;5032912;28;20068;-64
2022/03/09 07:18:49;;;;;;;18.48;8.45;;;3.60;99.90;;;;;;5031868;28;20025;-63
2022/03/09 07:21:15;;;;;;;21.65;8.25;;;3.60;99.90;;;;;;5032629;28;20457;-64
2022/03/09 07:23:40;;;;;;;19.70;9.02;;;3.70;99.90;;;;;;5032125;28;20049;-64
2022/03/09 07:26:06;;;;;;;22.23;8.85;;;3.70;99.90;;;;;;5032762;28;20438;-66
2022/03/09 07:28:32;;;;;;;19.30;8.52;;;3.80;99.90;;;;;;5032039;28;20021;-65
2022/03/09 07:30:57;;;;;;;20.13;7.75;;;3.90;99.90;;;;;;5032352;28;20057;-64
2022/03/09 07:33:23;;;;;;;18.95;8.77;;;3.90;99.90;;;;;;5031458;28;20034;-67
2022/03/09 07:35:49;;;;;;;19.13;7.80;;;4.00;99.90;;;;;;5032161;28;20425;-63
2022/03/09 07:38:15;;;;;;;22.40;8.75;;;4.10;99.90;;;;;;5032114;28;20034;-63
2022/03/09 07:40:41;;;;;;;19.30;7.82;;;4.10;99.90;;;;;;5026952;28;20465;-62
2022/03/09 07:43:07;;;;;;;19.73;8.30;;;4.20;99.90;;;;;;5027984;28;20030;-63
2022/03/09 07:45:33;;;;;;;17.00;7.07;;;4.30;99.90;;;;;;5032391;28;20068;-63
2022/03/09 07:47:58;;;;;;;20.80;8.18;;;4.40;99.90;;;;;;5032033;28;20389;-65
2022/03/09 07:50:24;;;;;;;20.75;8.20;;;4.50;99.90;;;;;;5031718;28;20076;-66
2022/03/09 07:52:50;;;;;;;21.77;8.00;;;4.60;99.90;;;;;;5031788;28;20037;-65
2022/03/09 07:55:16;;;;;;;20.55;8.45;;;4.60;99.90;;;;;;5031237;28;20025;-66
2022/03/09 07:57:41;;;;;;;18.58;8.32;;;4.80;99.90;;;;;;5035056;28;20575;-66
2022/03/09 08:00:08;;;;;;;17.75;8.07;;;4.90;99.70;;;;;;5034985;28;20409;-64
2022/03/09 08:02:33;;;;;;;20.48;8.40;;;5.00;99.60;;;;;;5034174;28;20038;-63
2022/03/09 08:04:59;;;;;;;22.75;8.60;;;5.10;99.40;;;;;;5035504;28;20029;-67
2022/03/09 08:07:24;;;;;;;20.35;8.10;;;5.30;99.30;;;;;;5035609;28;20041;-62
2022/03/09 08:09:50;;;;;;;21.63;8.90;;;5.50;99.00;;;;;;5035488;28;20033;-63
2022/03/09 08:12:16;;;;;;;21.13;8.70;;;5.70;98.60;;;;;;5033236;28;20038;-64
2022/03/09 08:14:41;;;;;;;19.27;8.80;;;5.90;98.30;;;;;;5034839;28;20029;-63
2022/03/09 08:17:07;;;;;;;17.70;7.75;;;6.10;98.00;;;;;;5035042;28;20100;-63
2022/03/09 08:19:33;;;;;;;19.88;8.77;;;6.30;97.40;;;;;;5035222;28;20476;-63
2022/03/09 08:21:59;;;;;;;20.38;8.93;;;6.60;97.10;;;;;;5034472;28;20249;-66
2022/03/09 08:24:27;;;;;;;21.65;8.55;;;7.00;96.60;;;;;;5035228;28;20049;-62
2022/03/09 08:26:52;;;;;;;21.35;9.13;;;7.60;95.90;;;;;;5034928;28;20037;-66
2022/03/09 08:29:18;;;;;;;21.63;9.20;;;8.40;94.80;;;;;;5035259;28;20389;-65
2022/03/09 08:31:44;;;;;;;19.67;8.70;;;9.10;93.50;;;;;;5033885;28;20057;-65
2022/03/09 08:34:09;;;;;;;19.25;9.50;;;10.00;92.00;;;;;;5034794;28;20116;-67
2022/03/09 08:36:35;;;;;;;20.70;9.43;;;10.70;90.30;;;;;;5033907;28;20492;-65
2022/03/09 08:39:01;;;;;;;19.50;9.57;;;11.50;86.80;;;;;;5034828;28;20027;-65
2022/03/09 08:41:28;;;;;;;21.50;10.00;;;12.30;83.20;;;;;;5034792;28;20021;-64
2022/03/09 08:43:54;;;;;;;17.90;8.23;;;13.00;77.10;;;;;;5034665;28;20025;-62
2022/03/09 08:46:20;;;;;;;18.00;9.10;;;13.60;73.70;;;;;;5034172;28;20124;-64
2022/03/09 08:48:46;;;;;;;19.65;8.98;;;14.10;70.20;;;;;;5033267;28;20417;-61
2022/03/09 08:51:12;;;;;;;18.80;10.05;;;14.40;67.40;;;;;;5037435;28;20470;-63
2022/03/09 08:53:37;;;;;;;20.48;10.02;;;14.70;66.20;;;;;;5035320;28;20096;-65
2022/03/09 08:56:07;;;;;;;19.27;9.80;;;15.10;64.60;;;;;;5034925;28;20095;-62
2022/03/09 08:58:34;;;;;;;20.98;10.95;;;15.40;62.90;;;;;;5034674;28;20038;-65
2022/03/09 09:01:00;;;;;;;19.50;9.95;;;16.00;61.70;;;;;;5030026;28;20389;-64
2022/03/09 09:03:25;;;;;;;19.73;10.27;;;16.40;59.40;;;;;;5034457;28;20121;-66
2022/03/09 09:05:52;;;;;;;20.10;9.85;;;17.00;58.90;;;;;;5034435;28;20099;-64
2022/03/09 09:08:18;;;;;;;20.15;9.63;;;17.50;57.10;;;;;;5032658;28;20132;-65
2022/03/09 09:10:44;;;;;;;19.00;10.00;;;17.80;54.80;;;;;;5034900;28;20026;-68
2022/03/09 09:13:10;;;;;;;21.45;10.30;;;17.80;54.30;;;;;;5033231;28;20033;-64
2022/03/09 09:15:38;;;;;;;20.08;9.68;;;18.10;54.20;;;;;;5033106;28;20104;-67
2022/03/09 09:18:05;;;;;;;18.27;9.70;;;18.30;53.00;;;;;;5033784;28;20034;-64
2022/03/09 09:20:31;;;;;;;18.48;9.73;;;18.60;52.40;;;;;;5034235;28;20025;-66
2022/03/09 09:22:57;;;;;;;22.67;13.88;;;18.80;51.80;;;;;;5034293;28;20108;-64
2022/03/09 09:25:24;;;;;;;19.75;10.52;;;19.00;51.20;;;;;;5034890;28;20152;-66
2022/03/09 09:27:51;;;;;;;18.13;9.38;;;19.30;50.60;;;;;;5034286;28;20048;-66
2022/03/09 09:30:18;;;;;;;20.75;11.13;;;19.60;49.30;;;;;;5034863;28;20029;-65
2022/03/09 09:32:43;;;;;;;19.88;10.32;;;19.60;49.90;;;;;;5033425;28;20108;-66
2022/03/09 09:35:12;;;;;;;21.42;10.90;;;19.90;49.00;;;;;;5033725;28;20445;-64
2022/03/09 09:37:38;;;;;;;22.40;10.75;;;20.20;48.80;;;;;;5033436;28;20029;-63
2022/03/09 09:40:06;;;;;;;20.17;10.82;;;20.30;48.10;;;;;;5034518;28;20033;-65
2022/03/09 09:42:33;;;;;;;19.05;10.70;;;20.40;47.80;;;;;;5034220;28;20116;-64
2022/03/09 09:45:00;;;;;;;19.92;10.60;;;20.60;47.60;;;;;;5034011;28;20021;-65
2022/03/09 09:47:29;;;;;;;24.27;11.48;;;20.70;46.90;;;;;;5033357;28;20041;-63
2022/03/09 09:49:58;;;;;;;27.15;12.32;;;20.70;47.00;;;;;;5029637;28;20052;-68
2022/03/09 09:52:28;;;;;;;21.83;11.15;;;20.90;46.70;;;;;;5032717;28;20025;-64
2022/03/09 09:54:55;;;;;;;23.08;11.48;;;21.10;46.80;;;;;;5031696;28;20043;-63
2022/03/09 09:57:22;;;;;;;22.20;11.98;;;21.40;46.30;;;;;;5034823;28;20032;-65
2022/03/09 09:59:49;;;;;;;21.08;11.45;;;21.40;45.50;;;;;;5032880;28;20059;-65
2022/03/09 10:02:15;;;;;;;23.88;12.90;;;21.40;46.00;;;;;;5048708;28;20727;-62
2022/03/09 10:04:41;;;;;;;22.55;12.15;;;21.40;45.10;;;;;;5052489;28;20104;-63
2022/03/09 10:07:07;;;;;;;21.98;11.85;;;21.40;45.10;;;;;;5045202;28;20036;-65
2022/03/09 10:09:40;;;;;;;23.30;13.38;;;21.40;45.70;;;;;;5032560;28;20052;-63
2022/03/09 10:12:07;;;;;;;23.48;13.25;;;21.70;45.40;;;;;;5032959;28;20033;-64
2022/03/09 10:14:42;;;;;;;24.55;12.65;;;21.90;44.70;;;;;;5032142;28;20457;-64
2022/03/09 10:17:12;;;;;;;23.77;13.15;;;21.90;44.80;;;;;;5025640;28;20097;-62
2022/03/09 10:19:44;;;;;;;23.85;12.88;;;22.10;45.40;;;;;;5031743;28;20034;-66
2022/03/09 10:22:28;;;;;;;;;;;22.40;44.30;;;;;;5023966;28;20041;-66
2022/03/09 10:24:59;;;;;;;24.30;12.68;;;22.50;44.20;;;;;;5026862;28;19980;-63
2022/03/09 10:27:32;;;;;;;23.92;13.90;;;22.50;44.00;;;;;;5016438;28;20038;-65
2022/03/09 10:29:57;;;;;;;24.90;13.32;;;22.60;44.30;;;;;;5024542;28;20406;-65
2022/03/09 10:32:46;;;;;;;23.00;12.70;;;22.80;44.10;;;;;;5022274;28;20045;-66
2022/03/09 10:35:15;;;;;;;22.98;13.18;;;22.80;44.00;;;;;;5014541;28;20030;-63
2022/03/09 10:37:42;;;;;;;22.55;12.90;;;22.60;44.30;;;;;;5024245;28;20478;-64
2022/03/09 10:40:10;;;;;;;24.98;13.27;;;22.60;44.00;;;;;;5029985;28;20122;-63
2022/03/09 10:42:38;;;;;;;24.00;13.40;;;22.60;44.10;;;;;;5033310;28;20366;-63
2022/03/09 10:45:09;;;;;;;23.70;13.13;;;22.80;43.90;;;;;;5025908;28;20033;-63
2022/03/09 10:47:38;;;;;;;22.80;13.23;;;22.80;43.60;;;;;;5030852;28;20033;-64
2022/03/09 10:50:11;;;;;;;23.83;13.70;;;23.10;44.10;;;;;;5015716;28;20043;-64
2022/03/09 10:52:47;;;;;;;23.40;13.45;;;23.50;43.10;;;;;;5026075;28;20064;-64
2022/03/09 10:55:32;;;;;;;25.10;13.57;;;23.50;43.10;;;;;;5028055;28;20056;-63
2022/03/09 10:58:14;;;;;;;24.73;14.10;;;23.50;42.90;;;;;;5024552;28;20112;-63
2022/03/09 11:00:42;;;;;;;;;;;23.50;43.20;;;;;;5024817;28;20065;-67
2022/03/09 11:03:21;;;;;;;25.65;14.18;;;23.50;43.00;;;;;;5019369;28;20003;-66
2022/03/09 11:05:54;;;;;;;24.58;14.20;;;23.30;43.30;;;;;;5038018;28;20042;-63
2022/03/09 11:08:26;;;;;;;27.45;14.75;;;23.20;43.20;;;;;;5039519;28;20380;-65
2022/03/09 11:10:53;;;;;;;27.10;14.85;;;23.10;43.20;;;;;;5027164;28;20390;-63
2022/03/09 11:13:19;;;;;;;24.33;13.05;;;23.10;43.10;;;;;;5029655;28;20025;-64
2022/03/09 11:15:47;;;;;;;25.70;14.10;;;22.90;43.30;;;;;;5032795;28;20037;-63
2022/03/09 11:18:26;;;;;;;26.92;14.23;;;22.80;43.70;;;;;;5032555;28;20404;-65
2022/03/09 11:20:57;;;;;;;24.08;13.65;;;23.10;44.70;;;;;;5026972;28;20025;-68
2022/03/09 11:23:25;;;;;;;27.00;14.05;;;23.50;43.30;;;;;;5018165;28;20028;-65
2022/03/09 11:25:54;;;;;;;25.27;13.95;;;23.90;43.30;;;;;;5039650;28;20049;-65
2022/03/09 11:28:23;;;;;;;23.58;14.15;;;24.10;42.70;;;;;;5038899;28;20044;-66
2022/03/09 11:31:02;;;;;;;25.35;14.80;;;24.40;42.80;;;;;;5041367;28;20025;-66
2022/03/09 11:33:42;;;;;;;26.48;13.75;;;24.80;42.20;;;;;;5026779;28;20025;-66
2022/03/09 11:36:30;;;;;;;28.27;15.63;;;24.50;41.80;;;;;;5043169;28;20025;-62
2022/03/09 11:39:17;;;;;;;26.23;14.32;;;24.30;41.70;;;;;;5042341;28;20029;-64
2022/03/09 11:41:44;;;;;;;30.80;15.25;;;24.30;42.00;;;;;;5037242;28;20038;-64
2022/03/09 11:44:19;;;;;;;25.58;13.80;;;24.40;41.90;;;;;;5040350;28;20048;-64
2022/03/09 11:46:56;;;;;;;26.67;14.88;;;24.60;41.50;;;;;;5040131;28;20043;-64
2022/03/09 11:49:22;;;;;;;24.20;13.70;;;24.30;41.70;;;;;;5032055;28;20030;-64
2022/03/09 11:52:09;;;;;;;29.08;15.80;;;24.10;41.90;;;;;;5035930;28;20025;-69
2022/03/09 11:54:56;;;;;;;28.88;15.32;;;23.70;41.80;;;;;;5036608;28;20035;-64
2022/03/09 11:57:51;;;;;;;27.15;15.02;;;23.30;42.00;;;;;;5029043;28;20304;-66
2022/03/09 12:00:18;;;;;;;29.08;15.73;;;22.90;42.50;;;;;;5023080;28;20052;-66
2022/03/09 12:02:51;;;;;;;27.08;15.52;;;22.80;43.10;;;;;;5050629;28;20473;-62
2022/03/09 12:05:26;;;;;;;27.73;15.38;;;23.10;42.50;;;;;;5028973;28;20021;-62
2022/03/09 12:08:03;;;;;;;26.98;14.80;;;23.00;42.80;;;;;;5026589;28;20034;-64
2022/03/09 12:10:51;;;;;;;29.45;16.35;;;23.00;42.60;;;;;;5028699;28;20026;-65
2022/03/09 12:13:26;;;;;;;27.98;15.88;;;22.90;42.90;;;;;;5030522;28;20022;-63
2022/03/09 12:16:22;;;;;;;28.92;15.98;;;22.90;42.80;;;;;;5028486;28;20065;-63
2022/03/09 12:18:57;;;;;;;28.17;15.90;;;22.90;42.90;;;;;;5030436;28;20030;-63
2022/03/09 12:21:25;;;;;;;31.88;15.77;;;22.90;42.80;;;;;;5032490;28;20030;-62
2022/03/09 12:24:06;;;;;;;27.42;15.10;;;22.90;42.60;;;;;;5033000;28;20053;-64
2022/03/09 12:26:42;;;;;;;28.33;16.25;;;22.80;42.60;;;;;;5031602;28;20037;-66
2022/03/09 12:29:27;;;;;;;29.40;15.48;;;22.80;43.10;;;;;;5036032;28;20021;-66
2022/03/09 12:32:01;;;;;;;28.83;15.95;;;23.10;42.90;;;;;;5030332;28;20124;-65
2022/03/09 12:34:28;;;;;;;29.20;15.93;;;23.40;42.70;;;;;;5041199;28;20102;-67
2022/03/09 12:36:54;;;;;;;27.77;14.57;;;23.60;42.60;;;;;;5055311;28;20454;-64
2022/03/09 12:39:20;;;;;;;28.52;16.83;;;23.50;42.00;;;;;;5030075;28;20196;-65
2022/03/09 12:41:52;;;;;;;27.17;14.48;;;23.30;42.00;;;;;;5036038;28;20108;-63